100LL.CA
Aviation Fuel Pricing for Canadians
Please upgrade your browser - Tested with IE9, FireFox, Chrome, Safari

Fuel Prices Airport Info Airport List METAR / TAF Kneeboard RSS

Reference Airport: Beaver Creek, YT
N 62 24 37   W 140 52 08

CYXQ Beaver Creek, YT
WEATHER
METARCYXQ 172100Z 00000KT 30SM BKN150 M15/M17 A2943 RMK AC7 SLP025
REF N 62 24 37  W 140 52 08    1NW    21E (2012)
UTC-8(7)    Elev 2131    A5028 A5099 LO5 CAP
OPR Govt of Yukon 867-862-7282 or 867-634-2035/2046
Reg
PFA-1 C-1,2,4,5
CUSTAOE/15 888-226-7277 Seasonal May-Oct 16-08Z
FLT PLN NOTAM FILE CYXQ
FIC Kamloops 866-WXBRIEF (Toll free within Canada) or 866-541-4101 (Toll free within Canada & USA)
ACCEdmonton IFR 888-358-7526
CARS867-862-7282 Ltd hrs (see COMM) Fax 867-862-7123
WXMETAR dur CARS hrs (see COMM) O/T LWIS
SERVICES Fuel stor by permit only 867-634-2035/2046
S4,5,6
RWY DATARwy 14(141)/32(321) 3745x100 gravel Thld 32 displ 341. Rwy 14 up 0.43%. R/L
RCRCARS, dur CARS hrs ops (see COMM) Ltd maint
LIGHTING14-(TE LO) V1, 32-(TE LO) V1 ARCAL-122.1 type J. Ngt ops not recommended unless hazard beacon oprg.
COMM
RCOWhitehorse rdo 123.475 (FISE) 126.7 (bcst)
MFaprt rdo ltd hrs O/T tfc 122.1 5NM 5200 ASL (CAR 602.98)
APRT RDO122.1 (V) 17-23Z
NAV
NDBYXQ 239 (L) N62 24 32 W140 51 40 Unmonitored when CARS clsd
PRORgt hand circuits Rwy 14 (CAR 602.96).
CAUTIONHill 0.5NM NE aprt. Extv migratory bird activity Apr-Nov.
Effective 0901Z 07 December 2017 to 0901Z 01 February 2018